Time;durP1;ratioP1;P1;durP2;ratioP2;P2;SDS_P1;SDS_P2;PMS_P1;PMS_P2;Temp;Humidity;BMP_temperature;BMP_pressure;BME280_temperature;BME280_humidity;BME280_pressure;Samples;Min_cycle;Max_cycle;Signal;HPM_P1;HPM_P2
2023/04/25 00:01:27;;;;;;;;;;;;;;;10.59;69.28;99199.57;104509;279;95486;-55
2023/04/25 00:04:01;;;;;;;;;;;;;;;10.55;69.36;99196.91;104522;279;98034;-55
2023/04/25 00:06:35;;;;;;;;;;;;;;;10.51;69.59;99195.48;104074;278;120850;-55
2023/04/25 00:09:09;;;;;;;;;;;;;;;10.46;69.75;99196.09;104525;279;105120;-54
2023/04/25 00:11:42;;;;;;;;;;;;;;;10.43;69.79;99200.65;104499;279;113583;-54
2023/04/25 00:14:16;;;;;;;;;;;;;;;10.42;69.90;99200.81;104099;279;94425;-54
2023/04/25 00:16:48;;;;;;;;;;;;;;;10.42;70.18;99200.06;104123;279;96006;-55
2023/04/25 00:19:20;;;;;;;;;;;;;;;10.40;70.37;99196.73;104094;278;119681;-56
2023/04/25 00:21:53;;;;;;;;;;;;;;;10.39;70.57;99194.77;104071;279;104292;-56
2023/04/25 00:24:25;;;;;;;;;;;;;;;10.36;70.64;99196.04;104100;278;114419;-54
2023/04/25 00:26:57;;;;;;;;;;;;;;;10.34;70.96;99196.92;104122;279;94624;-55
2023/04/25 00:29:29;;;;;;;;;;;;;;;10.28;71.09;99196.17;104111;279;97838;-56
2023/04/25 00:32:02;;;;;;;;;;;;;;;10.24;71.32;99196.95;104076;279;119900;-56
2023/04/25 00:34:34;;;;;;;;;;;;;;;10.22;71.56;99202.98;104090;279;106551;-57
2023/04/25 00:37:06;;;;;;;;;;;;;;;10.25;71.64;99202.54;104031;279;114592;-57
2023/04/25 00:39:38;;;;;;;;;;;;;;;10.25;71.81;99203.40;104096;279;96748;-56
2023/04/25 00:42:11;;;;;;;;;;;;;;;10.24;72.07;99194.85;104087;279;97213;-56
2023/04/25 00:44:43;;;;;;;;;;;;;;;10.27;72.20;99196.30;104077;278;118485;-55
2023/04/25 00:47:16;;;;;;;;;;;;;;;10.30;72.44;99198.94;104101;294;104649;-55
2023/04/25 00:49:48;;;;;;;;;;;;;;;10.31;72.38;99197.64;104085;279;114587;-56
2023/04/25 00:52:20;;;;;;;;;;;;;;;10.30;72.76;99197.66;104082;279;96021;-56
2023/04/25 00:54:52;;;;;;;;;;;;;;;10.32;72.70;99201.13;104070;278;97818;-56
2023/04/25 00:57:26;;;;;;;;;;;;;;;10.34;72.87;99200.90;104522;278;121251;-57
2023/04/25 00:59:58;;;;;;;;;;;;;;;10.36;72.91;99205.09;104069;279;106247;-55
2023/04/25 01:02:30;;;;;;;;;;;;;;;10.38;73.03;99208.19;104092;278;115041;-56
2023/04/25 01:05:02;;;;;;;;;;;;;;;10.44;72.98;99205.37;104043;279;96320;-56
2023/04/25 01:07:34;;;;;;;;;;;;;;;10.53;73.15;99203.52;104518;279;95191;-56
2023/04/25 01:10:08;;;;;;;;;;;;;;;10.57;73.22;99198.80;104520;278;119798;-56
2023/04/25 01:12:41;;;;;;;;;;;;;;;10.61;73.15;99199.52;104076;278;105895;-56
2023/04/25 01:15:13;;;;;;;;;;;;;;;10.64;73.27;99201.90;104496;278;114277;-56
2023/04/25 01:17:45;;;;;;;;;;;;;;;10.65;73.34;99198.83;104497;278;97179;-56
2023/04/25 01:20:17;;;;;;;;;;;;;;;10.70;73.39;99194.76;104093;278;97145;-57
2023/04/25 01:22:50;;;;;;;;;;;;;;;10.73;73.57;99195.36;104492;278;120788;-57
2023/04/25 01:25:22;;;;;;;;;;;;;;;10.79;73.67;99197.23;104568;277;103583;-57
2023/04/25 01:27:54;;;;;;;;;;;;;;;10.82;73.77;99202.53;103738;277;498781;-55
2023/04/25 01:30:27;;;;;;;;;;;;;;;10.89;74.44;99201.14;104102;277;96222;-55
2023/04/25 01:33:00;;;;;;;;;;;;;;;10.96;74.50;99197.50;104127;277;97667;-56
2023/04/25 01:35:32;;;;;;;;;;;;;;;10.97;74.53;99198.94;104102;277;119192;-56
2023/04/25 01:38:04;;;;;;;;;;;;;;;10.95;74.33;99191.69;104129;277;105025;-55
2023/04/25 01:40:39;;;;;;;;;;;;;;;10.91;74.61;99192.02;104127;277;115068;-55
2023/04/25 01:43:12;;;;;;;;;;;;;;;10.96;74.80;99189.56;104562;277;96334;-56
2023/04/25 01:45:44;;;;;;;;;;;;;;;10.93;74.67;99191.90;104114;277;97347;-56
2023/04/25 01:48:16;;;;;;;;;;;;;;;10.90;74.55;99193.92;104547;277;121834;-55
2023/04/25 01:50:49;;;;;;;;;;;;;;;10.92;74.63;99196.13;104128;277;105697;-55
2023/04/25 01:53:21;;;;;;;;;;;;;;;10.91;74.79;99193.39;104116;277;114059;-55
2023/04/25 01:55:54;;;;;;;;;;;;;;;10.90;74.56;99190.83;104112;277;94607;-55
2023/04/25 01:58:26;;;;;;;;;;;;;;;10.86;74.66;99187.35;104561;278;97354;-56
2023/04/25 02:00:58;;;;;;;;;;;;;;;10.78;74.79;99191.63;104578;277;119913;-56
2023/04/25 02:03:32;;;;;;;;;;;;;;;10.74;74.83;99193.11;104127;277;104232;-55
2023/04/25 02:06:05;;;;;;;;;;;;;;;10.70;74.75;99190.94;104088;277;114703;-55
2023/04/25 02:08:37;;;;;;;;;;;;;;;10.64;74.98;99193.71;104109;277;94402;-55
2023/04/25 02:11:09;;;;;;;;;;;;;;;10.60;75.09;99193.72;104574;277;97991;-55
2023/04/25 02:13:42;;;;;;;;;;;;;;;10.56;75.18;99193.91;104552;277;121361;-55
2023/04/25 02:16:14;;;;;;;;;;;;;;;10.51;75.22;99192.98;104586;277;105724;-55
2023/04/25 02:18:46;;;;;;;;;;;;;;;10.50;75.51;99191.39;104147;277;114328;-55
2023/04/25 02:21:18;;;;;;;;;;;;;;;10.49;75.63;99192.39;104059;277;97088;-55
2023/04/25 02:23:51;;;;;;;;;;;;;;;10.49;75.70;99195.34;104094;278;98118;-57
2023/04/25 02:26:24;;;;;;;;;;;;;;;10.48;75.92;99193.16;104568;277;120820;-57
2023/04/25 02:28:56;;;;;;;;;;;;;;;10.48;76.14;99192.39;104540;277;105304;-56
2023/04/25 02:31:28;;;;;;;;;;;;;;;10.50;76.22;99187.42;104125;277;113474;-57
2023/04/25 02:34:00;;;;;;;;;;;;;;;10.49;76.43;99181.00;104110;277;94431;-57
2023/04/25 02:36:34;;;;;;;;;;;;;;;10.50;76.62;99179.86;104104;277;96938;-57
2023/04/25 02:39:06;;;;;;;;;;;;;;;10.46;76.72;99174.58;104090;277;119807;-56
2023/04/25 02:41:38;;;;;;;;;;;;;;;10.46;76.60;99177.53;104101;277;105925;-56
2023/04/25 02:44:10;;;;;;;;;;;;;;;10.46;76.52;99178.94;104073;277;114969;-56
2023/04/25 02:46:42;;;;;;;;;;;;;;;10.46;76.61;99181.80;104116;277;96488;-57
2023/04/25 02:49:14;;;;;;;;;;;;;;;10.45;76.73;99181.60;104108;277;97985;-55
2023/04/25 02:51:46;;;;;;;;;;;;;;;10.45;76.59;99183.01;104330;277;121136;-55
2023/04/25 02:54:18;;;;;;;;;;;;;;;10.44;76.83;99184.85;104602;277;105739;-56
2023/04/25 02:56:50;;;;;;;;;;;;;;;10.40;76.87;99185.42;104539;277;113443;-56
2023/04/25 02:59:23;;;;;;;;;;;;;;;10.34;77.07;99186.33;104125;277;95836;-55
2023/04/25 03:01:55;;;;;;;;;;;;;;;10.33;76.90;99185.76;104581;277;98123;-55
2023/04/25 03:04:28;;;;;;;;;;;;;;;10.31;77.05;99187.30;104604;277;119984;-55
2023/04/25 03:07:00;;;;;;;;;;;;;;;10.29;77.14;99182.71;104177;266;104320;-55
2023/04/25 03:09:32;;;;;;;;;;;;;;;10.30;77.16;99177.93;104599;277;114006;-56
2023/04/25 03:12:04;;;;;;;;;;;;;;;10.30;77.21;99175.90;104592;277;94905;-56
2023/04/25 03:14:36;;;;;;;;;;;;;;;10.33;77.25;99177.82;104168;277;98301;-56
2023/04/25 03:17:09;;;;;;;;;;;;;;;10.38;77.20;99177.05;104136;277;120569;-56
2023/04/25 03:19:41;;;;;;;;;;;;;;;10.41;77.44;99171.75;104620;277;105027;-55
2023/04/25 03:22:13;;;;;;;;;;;;;;;10.44;77.53;99176.16;104126;277;114979;-55
2023/04/25 03:24:45;;;;;;;;;;;;;;;10.47;77.61;99178.23;104136;277;93381;-55
2023/04/25 03:27:17;;;;;;;;;;;;;;;10.53;77.79;99177.85;104630;277;97917;-55
2023/04/25 03:29:49;;;;;;;;;;;;;;;10.58;77.96;99178.60;104126;277;120693;-55
2023/04/25 03:32:22;;;;;;;;;;;;;;;10.59;77.92;99184.08;104145;277;105706;-55
2023/04/25 03:34:55;;;;;;;;;;;;;;;10.62;77.96;99188.83;104126;277;113730;-56
2023/04/25 03:37:28;;;;;;;;;;;;;;;10.64;78.19;99188.40;104145;277;93149;-56
2023/04/25 03:40:00;;;;;;;;;;;;;;;10.68;78.40;99187.25;104144;277;98136;-55
2023/04/25 03:42:32;;;;;;;;;;;;;;;10.71;78.28;99192.89;104144;277;120665;-56
2023/04/25 03:45:04;;;;;;;;;;;;;;;10.73;78.50;99195.07;104159;277;105382;-56
2023/04/25 03:47:37;;;;;;;;;;;;;;;10.79;78.57;99194.11;104118;277;114757;-55
2023/04/25 03:50:10;;;;;;;;;;;;;;;10.85;78.59;99192.73;104132;278;96606;-55
2023/04/25 03:52:42;;;;;;;;;;;;;;;10.95;78.89;99194.18;104620;277;97214;-57
2023/04/25 03:55:14;;;;;;;;;;;;;;;11.03;78.82;99195.64;104588;277;121309;-57
2023/04/25 03:57:46;;;;;;;;;;;;;;;11.09;78.80;99194.27;104547;278;105679;-55
2023/04/25 04:00:18;;;;;;;;;;;;;;;11.20;79.06;99201.06;104564;277;114689;-55
2023/04/25 04:02:51;;;;;;;;;;;;;;;11.30;79.09;99206.34;104133;277;97078;-57
2023/04/25 04:05:23;;;;;;;;;;;;;;;11.39;79.05;99203.59;104134;277;97962;-57
2023/04/25 04:07:56;;;;;;;;;;;;;;;11.45;78.97;99206.09;104597;277;120899;-56
2023/04/25 04:10:28;;;;;;;;;;;;;;;11.51;78.95;99205.27;104573;277;104109;-56
2023/04/25 04:13:00;;;;;;;;;;;;;;;11.60;78.98;99212.52;104133;277;114852;-55
2023/04/25 04:15:33;;;;;;;;;;;;;;;11.65;78.85;99211.95;103915;278;96520;-55
2023/04/25 04:18:05;;;;;;;;;;;;;;;11.72;78.79;99217.77;104110;277;97443;-57
2023/04/25 04:20:38;;;;;;;;;;;;;;;11.75;78.92;99217.73;104130;277;120821;-57
2023/04/25 04:23:10;;;;;;;;;;;;;;;11.79;78.75;99217.61;104140;278;105926;-55
2023/04/25 04:25:43;;;;;;;;;;;;;;;11.87;79.04;99219.55;104101;277;113822;-57
2023/04/25 04:28:15;;;;;;;;;;;;;;;11.90;79.03;99222.20;104117;277;97389;-55
2023/04/25 04:30:52;;;;;;;;;;;;;;;11.94;78.88;99223.77;104145;277;98176;-55
2023/04/25 04:33:26;;;;;;;;;;;;;;;11.95;78.93;99227.33;104136;277;120617;-55
2023/04/25 04:36:00;;;;;;;;;;;;;;;11.97;79.00;99228.47;104124;277;106199;-57
2023/04/25 04:38:33;;;;;;;;;;;;;;;12.01;79.01;99227.27;104153;277;114554;-55
2023/04/25 04:41:06;;;;;;;;;;;;;;;11.99;79.20;99227.29;104115;277;96854;-55
2023/04/25 04:43:39;;;;;;;;;;;;;;;12.03;79.20;99225.27;104600;277;98296;-55
2023/04/25 04:46:12;;;;;;;;;;;;;;;11.97;79.53;99220.02;104582;277;121460;-55
2023/04/25 04:48:45;;;;;;;;;;;;;;;11.95;79.62;99220.05;104132;277;105443;-55
2023/04/25 04:51:18;;;;;;;;;;;;;;;11.98;79.35;99217.55;104608;277;114236;-55
2023/04/25 04:53:50;;;;;;;;;;;;;;;12.04;79.32;99221.84;104126;277;97008;-57
2023/04/25 04:56:23;;;;;;;;;;;;;;;12.11;79.34;99222.39;104659;277;98399;-55
2023/04/25 04:58:55;;;;;;;;;;;;;;;12.18;79.32;99221.92;104117;277;121273;-56
2023/04/25 05:01:28;;;;;;;;;;;;;;;12.23;79.18;99223.13;104578;277;104940;-57
2023/04/25 05:04:01;;;;;;;;;;;;;;;12.25;79.22;99224.94;104574;277;113435;-55
2023/04/25 05:06:33;;;;;;;;;;;;;;;12.28;79.15;99226.52;104601;277;96401;-55
2023/04/25 05:09:06;;;;;;;;;;;;;;;12.32;79.16;99223.35;104125;277;97328;-57
2023/04/25 05:11:39;;;;;;;;;;;;;;;12.35;79.08;99224.95;104589;278;119636;-57
2023/04/25 05:14:11;;;;;;;;;;;;;;;12.36;79.08;99225.45;104123;277;104595;-57
2023/04/25 05:16:43;;;;;;;;;;;;;;;12.34;79.14;99223.61;104081;277;114682;-57
2023/04/25 05:19:15;;;;;;;;;;;;;;;12.33;78.90;99222.29;104107;277;97519;-55
2023/04/25 05:21:47;;;;;;;;;;;;;;;12.38;78.87;99225.40;104111;277;97344;-55
2023/04/25 05:24:19;;;;;;;;;;;;;;;12.45;78.73;99229.92;104072;277;120916;-56
2023/04/25 05:26:51;;;;;;;;;;;;;;;12.45;78.67;99231.51;104608;277;106416;-56
2023/04/25 05:29:23;;;;;;;;;;;;;;;12.31;78.93;99238.58;104549;277;114660;-55
2023/04/25 05:31:56;;;;;;;;;;;;;;;12.27;78.92;99235.33;104110;277;96716;-55
2023/04/25 05:34:28;;;;;;;;;;;;;;;12.27;78.95;99239.21;104113;277;98161;-55
2023/04/25 05:37:00;;;;;;;;;;;;;;;12.23;79.06;99246.16;104578;277;120582;-55
2023/04/25 05:39:32;;;;;;;;;;;;;;;12.20;79.01;99248.08;104588;277;106055;-55
2023/04/25 05:42:04;;;;;;;;;;;;;;;12.17;79.02;99250.16;104579;277;114611;-55
2023/04/25 05:44:36;;;;;;;;;;;;;;;12.13;78.88;99248.80;104571;278;93432;-56
2023/04/25 05:47:09;;;;;;;;;;;;;;;12.08;78.90;99252.83;104111;277;97636;-57
2023/04/25 05:49:41;;;;;;;;;;;;;;;12.07;78.93;99252.80;104145;277;119925;-55
2023/04/25 05:52:13;;;;;;;;;;;;;;;12.06;79.05;99250.85;104140;277;104709;-55
2023/04/25 05:54:45;;;;;;;;;;;;;;;12.06;78.89;99248.10;104598;277;114497;-57
2023/04/25 05:57:24;;;;;;;;;;;;;;;12.05;79.20;99245.48;104109;277;96859;-57
2023/04/25 05:59:56;;;;;;;;;;;;;;;12.08;79.14;99246.53;104121;277;97026;-55
2023/04/25 06:02:28;;;;;;;;;;;;;;;12.17;79.25;99247.25;104115;277;120775;-55
2023/04/25 06:05:03;;;;;;;;;;;;;;;12.27;79.29;99250.72;104102;277;105502;-57
2023/04/25 06:07:35;;;;;;;;;;;;;;;12.31;79.40;99254.81;104096;277;114989;-55
2023/04/25 06:10:09;;;;;;;;;;;;;;;12.35;79.35;99257.55;104540;278;97668;-55
2023/04/25 06:12:41;;;;;;;;;;;;;;;12.39;79.35;99257.01;104129;278;98768;-57
2023/04/25 06:15:13;;;;;;;;;;;;;;;12.36;79.11;99261.38;104105;277;120090;-57
2023/04/25 06:17:45;;;;;;;;;;;;;;;12.33;79.10;99262.04;104558;277;106193;-55
2023/04/25 06:20:17;;;;;;;;;;;;;;;12.28;79.16;99263.40;104089;277;114933;-55
2023/04/25 06:22:50;;;;;;;;;;;;;;;12.21;79.29;99264.99;104105;277;96576;-55
2023/04/25 06:25:22;;;;;;;;;;;;;;;12.26;79.28;99270.14;104121;277;97876;-55
2023/04/25 06:27:55;;;;;;;;;;;;;;;12.21;79.46;99272.36;104146;277;120878;-55
2023/04/25 06:30:27;;;;;;;;;;;;;;;12.26;79.25;99276.17;104125;278;106255;-55
2023/04/25 06:33:00;;;;;;;;;;;;;;;12.24;79.17;99282.16;104122;277;114364;-57
2023/04/25 06:35:32;;;;;;;;;;;;;;;12.23;79.00;99286.13;104125;274;96452;-58
2023/04/25 06:38:04;;;;;;;;;;;;;;;12.19;79.10;99295.09;104536;278;96763;-58
2023/04/25 06:40:37;;;;;;;;;;;;;;;12.17;79.04;99307.23;104092;279;119717;-58
2023/04/25 06:43:09;;;;;;;;;;;;;;;12.14;78.90;99314.56;104093;278;104537;-56
2023/04/25 06:45:42;;;;;;;;;;;;;;;12.10;78.89;99324.77;104068;278;112411;-56
2023/04/25 06:48:14;;;;;;;;;;;;;;;12.07;78.93;99328.67;104511;278;92232;-58
2023/04/25 06:50:46;;;;;;;;;;;;;;;12.00;79.17;99328.92;104527;278;97850;-58
2023/04/25 06:53:18;;;;;;;;;;;;;;;11.96;79.19;99323.20;104537;278;119924;-56
2023/04/25 06:55:50;;;;;;;;;;;;;;;11.96;79.38;99317.59;104532;278;106597;-56
2023/04/25 06:58:22;;;;;;;;;;;;;;;11.93;78.88;99312.83;104513;278;113429;-56
2023/04/25 07:00:54;;;;;;;;;;;;;;;11.76;79.36;99309.89;104100;278;93553;-56
2023/04/25 07:03:26;;;;;;;;;;;;;;;11.73;79.20;99300.31;104516;278;98703;-58
2023/04/25 07:05:58;;;;;;;;;;;;;;;11.77;79.38;99304.88;104494;279;120693;-58
2023/04/25 07:08:31;;;;;;;;;;;;;;;11.92;79.11;99308.18;104103;278;106090;-58
2023/04/25 07:11:03;;;;;;;;;;;;;;;12.06;79.34;99307.54;104513;279;114246;-58
2023/04/25 07:13:35;;;;;;;;;;;;;;;12.21;79.23;99305.44;104103;279;94226;-57
2023/04/25 07:16:08;;;;;;;;;;;;;;;12.35;79.34;99305.98;104514;279;97273;-57
2023/04/25 07:18:40;;;;;;;;;;;;;;;12.62;79.50;99301.50;104080;278;120436;-59
2023/04/25 07:21:12;;;;;;;;;;;;;;;13.02;79.39;99300.71;104087;279;105258;-59
2023/04/25 07:23:44;;;;;;;;;;;;;;;13.46;79.36;99298.59;104516;279;114450;-56
2023/04/25 07:26:16;;;;;;;;;;;;;;;13.83;79.09;99297.61;104068;279;97408;-56
2023/04/25 07:28:50;;;;;;;;;;;;;;;14.05;78.68;99295.55;104110;279;96153;-57
2023/04/25 07:31:24;;;;;;;;;;;;;;;14.31;78.17;99300.83;104082;279;121284;-57
2023/04/25 07:33:56;;;;;;;;;;;;;;;14.44;77.82;99304.07;104518;279;106300;-56
2023/04/25 07:36:28;;;;;;;;;;;;;;;14.53;77.54;99301.59;104079;277;114589;-55
2023/04/25 07:39:00;;;;;;;;;;;;;;;14.68;76.81;99299.34;104130;277;93686;-57
2023/04/25 07:41:32;;;;;;;;;;;;;;;14.96;76.25;99298.96;104638;277;98317;-57
2023/04/25 07:44:05;;;;;;;;;;;;;;;15.11;75.47;99300.34;104147;277;121538;-58
2023/04/25 07:46:37;;;;;;;;;;;;;;;15.18;75.35;99302.26;104156;277;104607;-58
2023/04/25 07:49:10;;;;;;;;;;;;;;;15.37;75.04;99304.34;104142;277;114973;-56
2023/04/25 07:51:43;;;;;;;;;;;;;;;15.59;74.50;99309.52;104146;277;92370;-56
2023/04/25 07:54:16;;;;;;;;;;;;;;;15.49;74.02;99308.95;104160;277;98320;-55
2023/04/25 07:56:48;;;;;;;;;;;;;;;15.68;74.33;99313.90;104114;277;119713;-55
2023/04/25 07:59:21;;;;;;;;;;;;;;;15.76;73.80;99311.14;104147;277;104699;-56
2023/04/25 08:01:53;;;;;;;;;;;;;;;15.59;73.37;99314.46;104136;277;115354;-56
2023/04/25 08:04:26;;;;;;;;;;;;;;;15.21;73.39;99319.08;104137;277;94296;-54
2023/04/25 08:06:58;;;;;;;;;;;;;;;15.04;73.32;99315.33;104120;277;98168;-54
2023/04/25 08:09:34;;;;;;;;;;;;;;;15.10;73.29;99320.23;104117;277;121296;-57
2023/04/25 08:12:07;;;;;;;;;;;;;;;15.28;72.68;99314.39;104111;277;105724;-57
2023/04/25 08:14:39;;;;;;;;;;;;;;;15.19;72.75;99316.00;104136;277;115095;-55
2023/04/25 08:17:12;;;;;;;;;;;;;;;14.99;72.25;99317.23;104607;277;94616;-55
2023/04/25 08:19:44;;;;;;;;;;;;;;;14.67;72.51;99321.53;104143;277;96542;-56
2023/04/25 08:22:16;;;;;;;;;;;;;;;14.34;72.38;99318.15;104591;277;120259;-56
2023/04/25 08:24:48;;;;;;;;;;;;;;;14.07;72.71;99317.71;104100;277;105042;-56
2023/04/25 08:27:21;;;;;;;;;;;;;;;13.93;72.87;99319.48;104568;277;114789;-56
2023/04/25 08:29:54;;;;;;;;;;;;;;;13.71;73.16;99323.94;104087;277;92347;-56
2023/04/25 08:32:27;;;;;;;;;;;;;;;13.49;73.10;99321.77;104139;277;98055;-57
2023/04/25 08:34:59;;;;;;;;;;;;;;;13.30;73.11;99334.23;103993;278;122485;-57
2023/04/25 08:37:32;;;;;;;;;;;;;;;13.27;73.32;99334.73;104141;277;105283;-57
2023/04/25 08:40:07;;;;;;;;;;;;;;;13.44;73.81;99328.77;104104;277;113414;-57
2023/04/25 08:42:42;;;;;;;;;;;;;;;13.63;73.77;99331.79;104605;277;94035;-56
2023/04/25 08:45:14;;;;;;;;;;;;;;;13.73;73.56;99334.88;104609;277;96989;-57
2023/04/25 08:47:48;;;;;;;;;;;;;;;13.64;73.56;99337.00;104135;277;120956;-57
2023/04/25 08:50:22;;;;;;;;;;;;;;;13.48;73.36;99346.54;104128;277;104334;-57
2023/04/25 08:52:55;;;;;;;;;;;;;;;13.44;73.20;99351.10;104131;277;114359;-55
2023/04/25 08:55:27;;;;;;;;;;;;;;;13.31;73.34;99355.83;104147;277;95564;-55
2023/04/25 08:58:00;;;;;;;;;;;;;;;13.23;73.56;99362.63;104162;277;96657;-55
2023/04/25 09:00:33;;;;;;;;;;;;;;;13.24;73.48;99361.77;104109;277;121044;-55
2023/04/25 09:03:05;;;;;;;;;;;;;;;13.25;73.41;99363.33;104619;277;105092;-57
2023/04/25 09:05:37;;;;;;;;;;;;;;;13.13;73.26;99367.07;104601;277;113244;-57
2023/04/25 09:08:10;;;;;;;;;;;;;;;13.04;73.37;99373.58;104127;277;95370;-56
2023/04/25 09:10:42;;;;;;;;;;;;;;;12.94;73.39;99373.95;104609;277;96813;-53
2023/04/25 09:13:16;;;;;;;;;;;;;;;12.77;73.19;99378.74;104165;277;120328;-56
2023/04/25 09:15:52;;;;;;;;;;;;;;;12.77;73.25;99382.17;104595;277;106122;-56
2023/04/25 09:18:28;;;;;;;;;;;;;;;12.82;73.56;99382.31;104574;277;114555;-56
2023/04/25 09:21:06;;;;;;;;;;;;;;;12.95;73.66;99383.30;104560;277;94459;-55
2023/04/25 09:23:45;;;;;;;;;;;;;;;12.98;73.73;99384.27;104099;277;97809;-55
2023/04/25 09:26:19;;;;;;;;;;;;;;;12.83;73.58;99379.84;104555;277;119778;-55
2023/04/25 09:29:05;;;;;;;;;;;;;;;12.79;73.57;99377.61;103548;278;605606;-54
2023/04/25 09:31:37;;;;;;;;;;;;;;;12.62;73.79;99377.61;104116;277;114282;-54
2023/04/25 09:34:11;;;;;;;;;;;;;;;12.73;73.77;99379.39;104127;277;93859;-54
2023/04/25 09:36:43;;;;;;;;;;;;;;;12.77;73.88;99379.63;104128;277;97384;-54
2023/04/25 09:39:16;;;;;;;;;;;;;;;12.74;73.83;99385.87;104579;277;120845;-56
2023/04/25 09:41:48;;;;;;;;;;;;;;;12.71;73.95;99387.34;104054;277;105305;-56
2023/04/25 09:44:26;;;;;;;;;;;;;;;12.68;74.05;99388.71;104584;278;114631;-56
2023/04/25 09:46:59;;;;;;;;;;;;;;;12.66;73.77;99386.44;104092;277;94411;-56
2023/04/25 09:49:31;;;;;;;;;;;;;;;12.55;73.82;99390.16;104119;277;96985;-54
2023/04/25 09:52:03;;;;;;;;;;;;;;;12.40;73.87;99395.70;104081;278;120421;-54
2023/04/25 09:54:35;;;;;;;;;;;;;;;12.40;74.26;99399.77;104044;278;104804;-54
2023/04/25 09:57:12;;;;;;;;;;;;;;;12.30;74.26;99404.35;104545;277;114438;-54
2023/04/25 09:59:46;;;;;;;;;;;;;;;12.35;74.54;99407.21;104109;278;96662;-56
2023/04/25 10:02:20;;;;;;;;;;;;;;;12.40;74.53;99407.23;104110;277;96869;-56
2023/04/25 10:04:55;;;;;;;;;;;;;;;12.46;74.45;99409.77;104099;277;120407;-56
2023/04/25 10:07:31;;;;;;;;;;;;;;;12.41;74.62;99417.77;104083;277;104591;-56
2023/04/25 10:10:04;;;;;;;;;;;;;;;12.46;74.77;99414.78;104086;277;115019;-56
2023/04/25 10:12:37;;;;;;;;;;;;;;;12.54;74.80;99417.93;104091;277;97039;-55
2023/04/25 10:15:10;;;;;;;;;;;;;;;12.44;74.81;99416.91;104133;277;96545;-55
2023/04/25 10:17:43;;;;;;;;;;;;;;;12.42;74.88;99420.31;104116;277;121775;-55
2023/04/25 10:20:18;;;;;;;;;;;;;;;12.35;75.19;99417.89;104571;278;105617;-56
2023/04/25 10:22:56;;;;;;;;;;;;;;;12.37;75.24;99420.52;104553;277;115550;-56
2023/04/25 10:25:28;;;;;;;;;;;;;;;12.45;75.28;99423.31;104578;277;94879;-56
2023/04/25 10:28:02;;;;;;;;;;;;;;;12.60;75.36;99418.83;104128;277;97810;-57
2023/04/25 10:30:35;;;;;;;;;;;;;;;12.53;74.99;99421.27;104124;277;120499;-57
2023/04/25 10:33:17;;;;;;;;;;;;;;;12.46;75.04;99415.94;104581;277;106006;-57
2023/04/25 10:35:50;;;;;;;;;;;;;;;12.39;75.14;99415.67;104119;278;114654;-57
2023/04/25 10:38:22;;;;;;;;;;;;;;;12.45;75.27;99421.27;104126;277;93765;-56
2023/04/25 10:41:08;;;;;;;;;;;;;;;12.48;75.42;99419.50;104120;277;98685;-56
2023/04/25 10:43:42;;;;;;;;;;;;;;;12.42;75.56;99420.19;104552;277;121285;-56
2023/04/25 10:46:18;;;;;;;;;;;;;;;12.26;75.52;99418.94;104584;277;105097;-55
2023/04/25 10:48:52;;;;;;;;;;;;;;;12.20;75.40;99424.55;104088;278;115135;-57
2023/04/25 10:51:26;;;;;;;;;;;;;;;12.14;75.25;99425.23;104106;277;95253;-57
2023/04/25 10:54:03;;;;;;;;;;;;;;;12.03;75.34;99427.00;104561;277;97144;-56
2023/04/25 10:56:39;;;;;;;;;;;;;;;12.05;75.62;99423.31;104576;277;120339;-56
2023/04/25 10:59:13;;;;;;;;;;;;;;;12.12;75.63;99418.25;104572;277;105225;-57
2023/04/25 11:01:46;;;;;;;;;;;;;;;12.16;75.83;99418.59;104102;278;114203;-57
2023/04/25 11:04:25;;;;;;;;;;;;;;;12.19;75.95;99418.67;104584;277;94663;-57
2023/04/25 11:07:08;;;;;;;;;;;;;;;12.18;76.02;99420.63;104623;277;97969;-57
2023/04/25 11:09:41;;;;;;;;;;;;;;;12.26;75.91;99424.58;104127;277;120625;-57
2023/04/25 11:12:13;;;;;;;;;;;;;;;12.31;76.07;99423.97;104607;277;105429;-57
2023/04/25 11:14:45;;;;;;;;;;;;;;;12.45;76.18;99419.85;104151;277;112857;-57
2023/04/25 11:17:18;;;;;;;;;;;;;;;12.55;75.82;99418.63;104110;277;97016;-57
2023/04/25 11:19:50;;;;;;;;;;;;;;;12.63;75.68;99420.48;104167;277;96109;-57
2023/04/25 11:22:24;;;;;;;;;;;;;;;12.73;75.68;99415.37;104099;277;120686;-57
2023/04/25 11:24:56;;;;;;;;;;;;;;;12.90;75.63;99419.99;104129;277;105751;-57
2023/04/25 11:27:28;;;;;;;;;;;;;;;12.99;75.74;99420.08;104091;277;114988;-56
2023/04/25 11:30:10;;;;;;;;;;;;;;;13.08;75.81;99420.19;104628;277;97194;-56
2023/04/25 11:32:43;;;;;;;;;;;;;;;13.20;75.29;99419.11;104618;277;97513;-57
2023/04/25 11:35:16;;;;;;;;;;;;;;;13.23;74.89;99421.21;104132;277;119007;-57
2023/04/25 11:37:49;;;;;;;;;;;;;;;13.25;75.04;99422.63;104013;278;104379;-56
2023/04/25 11:40:21;;;;;;;;;;;;;;;13.33;75.01;99420.60;104601;277;112792;-55
2023/04/25 11:42:53;;;;;;;;;;;;;;;13.40;74.60;99417.98;104135;277;94202;-61
2023/04/25 11:45:26;;;;;;;;;;;;;;;13.39;74.24;99414.59;104134;277;96687;-61
2023/04/25 11:47:58;;;;;;;;;;;;;;;13.30;74.09;99417.27;104610;277;119203;-61
2023/04/25 11:50:30;;;;;;;;;;;;;;;13.31;73.69;99418.27;104136;277;105530;-62
2023/04/25 11:53:03;;;;;;;;;;;;;;;13.40;73.31;99418.62;104130;277;114545;-61
2023/04/25 11:55:36;;;;;;;;;;;;;;;13.45;73.03;99419.94;104153;277;94338;-62
2023/04/25 11:58:09;;;;;;;;;;;;;;;13.39;72.86;99418.93;104155;277;97626;-57
2023/04/25 12:00:42;;;;;;;;;;;;;;;13.35;73.00;99418.55;104591;277;121714;-57
2023/04/25 12:03:15;;;;;;;;;;;;;;;13.24;72.98;99417.80;104630;277;104773;-57
2023/04/25 12:05:47;;;;;;;;;;;;;;;13.15;72.51;99417.23;104133;277;114978;-57
2023/04/25 12:08:19;;;;;;;;;;;;;;;13.00;72.57;99418.48;104013;279;95095;-57
2023/04/25 12:10:52;;;;;;;;;;;;;;;12.95;72.32;99417.52;104612;277;97397;-57
2023/04/25 12:13:25;;;;;;;;;;;;;;;12.86;72.32;99414.80;104179;277;120247;-57
2023/04/25 12:15:58;;;;;;;;;;;;;;;12.84;72.13;99416.66;104601;277;106276;-57
2023/04/25 12:18:30;;;;;;;;;;;;;;;12.75;71.71;99417.02;104591;277;114123;-55
2023/04/25 12:21:04;;;;;;;;;;;;;;;12.64;71.87;99413.73;104151;277;93482;-55
2023/04/25 12:23:39;;;;;;;;;;;;;;;12.55;72.03;99412.78;104160;277;96359;-55
2023/04/25 12:26:11;;;;;;;;;;;;;;;12.55;71.81;99412.39;104125;277;120895;-55
2023/04/25 12:28:48;;;;;;;;;;;;;;;12.60;71.74;99411.31;104145;277;104203;-56
2023/04/25 12:31:20;;;;;;;;;;;;;;;12.55;71.86;99415.80;104117;277;114028;-57
2023/04/25 12:33:52;;;;;;;;;;;;;;;12.54;71.92;99415.61;104557;277;94314;-56
2023/04/25 12:36:25;;;;;;;;;;;;;;;12.59;71.64;99414.74;104129;277;96366;-57
2023/04/25 12:39:03;;;;;;;;;;;;;;;12.50;71.93;99414.27;103902;278;123069;-55
2023/04/25 12:41:36;;;;;;;;;;;;;;;12.48;71.98;99415.05;104594;277;105931;-55
2023/04/25 12:44:08;;;;;;;;;;;;;;;12.44;71.74;99413.02;104099;277;114038;-57
2023/04/25 12:46:41;;;;;;;;;;;;;;;12.41;71.79;99413.19;104546;277;93713;-57
2023/04/25 12:49:13;;;;;;;;;;;;;;;12.36;71.56;99415.58;104610;277;98183;-55
2023/04/25 12:51:46;;;;;;;;;;;;;;;12.26;71.32;99420.69;104105;277;121413;-55
2023/04/25 12:54:18;;;;;;;;;;;;;;;12.22;71.54;99421.81;104125;278;106238;-55
2023/04/25 12:56:51;;;;;;;;;;;;;;;12.22;71.59;99418.94;104599;277;115064;-55
2023/04/25 12:59:23;;;;;;;;;;;;;;;12.30;71.83;99418.70;104586;277;97103;-55
2023/04/25 13:01:55;;;;;;;;;;;;;;;12.36;71.80;99413.14;104108;278;97480;-55
2023/04/25 13:04:27;;;;;;;;;;;;;;;12.45;71.84;99413.99;104553;277;119978;-55
2023/04/25 13:06:59;;;;;;;;;;;;;;;12.50;71.99;99409.80;104087;277;104965;-55
2023/04/25 13:09:32;;;;;;;;;;;;;;;12.47;72.17;99407.39;104618;277;115071;-57